sensor_id;sensor_type;location;lat;lon;timestamp;P1;durP1;ratioP1;P2;durP2;ratioP2
2646;SDS011;1333;50.958;6.770;2024-01-07T00:01:00;30.23;;;15.90;;
2646;SDS011;1333;50.958;6.770;2024-01-07T00:03:26;33.60;;;15.27;;
2646;SDS011;1333;50.958;6.770;2024-01-07T00:05:52;37.27;;;15.83;;
2646;SDS011;1333;50.958;6.770;2024-01-07T00:08:18;33.40;;;16.30;;
2646;SDS011;1333;50.958;6.770;2024-01-07T00:10:43;35.13;;;17.33;;
2646;SDS011;1333;50.958;6.770;2024-01-07T00:13:09;39.60;;;18.60;;
2646;SDS011;1333;50.958;6.770;2024-01-07T00:15:34;28.70;;;15.70;;
2646;SDS011;1333;50.958;6.770;2024-01-07T00:18:00;37.47;;;15.83;;
2646;SDS011;1333;50.958;6.770;2024-01-07T00:20:25;26.40;;;14.10;;
2646;SDS011;1333;50.958;6.770;2024-01-07T00:22:51;33.63;;;16.70;;
2646;SDS011;1333;50.958;6.770;2024-01-07T00:25:16;30.67;;;16.33;;
2646;SDS011;1333;50.958;6.770;2024-01-07T00:27:43;33.80;;;16.27;;
2646;SDS011;1333;50.958;6.770;2024-01-07T00:30:09;29.50;;;15.77;;
2646;SDS011;1333;50.958;6.770;2024-01-07T00:32:34;37.17;;;16.90;;
2646;SDS011;1333;50.958;6.770;2024-01-07T00:35:00;36.07;;;15.77;;
2646;SDS011;1333;50.958;6.770;2024-01-07T00:37:25;39.20;;;17.77;;
2646;SDS011;1333;50.958;6.770;2024-01-07T00:39:51;36.37;;;14.97;;
2646;SDS011;1333;50.958;6.770;2024-01-07T00:42:17;34.00;;;17.17;;
2646;SDS011;1333;50.958;6.770;2024-01-07T00:44:42;38.77;;;16.60;;
2646;SDS011;1333;50.958;6.770;2024-01-07T00:47:08;34.80;;;14.97;;
2646;SDS011;1333;50.958;6.770;2024-01-07T00:49:33;34.70;;;15.63;;
2646;SDS011;1333;50.958;6.770;2024-01-07T00:51:59;37.90;;;17.70;;
2646;SDS011;1333;50.958;6.770;2024-01-07T00:54:24;27.17;;;15.87;;
2646;SDS011;1333;50.958;6.770;2024-01-07T00:56:50;34.60;;;17.10;;
2646;SDS011;1333;50.958;6.770;2024-01-07T00:59:15;33.47;;;16.43;;
2646;SDS011;1333;50.958;6.770;2024-01-07T01:01:41;36.93;;;15.97;;
2646;SDS011;1333;50.958;6.770;2024-01-07T01:04:06;35.17;;;17.90;;
2646;SDS011;1333;50.958;6.770;2024-01-07T01:06:32;26.00;;;12.90;;
2646;SDS011;1333;50.958;6.770;2024-01-07T01:08:57;30.53;;;15.13;;
2646;SDS011;1333;50.958;6.770;2024-01-07T01:11:23;29.90;;;15.00;;
2646;SDS011;1333;50.958;6.770;2024-01-07T01:13:48;28.60;;;14.83;;
2646;SDS011;1333;50.958;6.770;2024-01-07T01:16:14;35.60;;;14.37;;
2646;SDS011;1333;50.958;6.770;2024-01-07T01:18:39;30.03;;;13.73;;
2646;SDS011;1333;50.958;6.770;2024-01-07T01:21:05;29.20;;;16.33;;
2646;SDS011;1333;50.958;6.770;2024-01-07T01:23:30;29.20;;;15.10;;
2646;SDS011;1333;50.958;6.770;2024-01-07T01:25:56;29.77;;;15.17;;
2646;SDS011;1333;50.958;6.770;2024-01-07T01:28:21;33.13;;;15.87;;
2646;SDS011;1333;50.958;6.770;2024-01-07T01:30:47;27.53;;;14.30;;
2646;SDS011;1333;50.958;6.770;2024-01-07T01:33:12;31.57;;;13.67;;
2646;SDS011;1333;50.958;6.770;2024-01-07T01:35:38;31.53;;;15.30;;
2646;SDS011;1333;50.958;6.770;2024-01-07T01:38:03;26.20;;;13.27;;
2646;SDS011;1333;50.958;6.770;2024-01-07T01:40:29;31.07;;;13.73;;
2646;SDS011;1333;50.958;6.770;2024-01-07T01:42:54;24.93;;;13.50;;
2646;SDS011;1333;50.958;6.770;2024-01-07T01:45:20;28.70;;;12.40;;
2646;SDS011;1333;50.958;6.770;2024-01-07T01:47:45;21.93;;;13.70;;
2646;SDS011;1333;50.958;6.770;2024-01-07T01:50:12;26.03;;;12.37;;
2646;SDS011;1333;50.958;6.770;2024-01-07T01:52:39;23.37;;;11.03;;
2646;SDS011;1333;50.958;6.770;2024-01-07T01:55:05;27.47;;;12.30;;
2646;SDS011;1333;50.958;6.770;2024-01-07T01:57:34;25.70;;;12.43;;
2646;SDS011;1333;50.958;6.770;2024-01-07T02:00:02;25.40;;;12.17;;
2646;SDS011;1333;50.958;6.770;2024-01-07T02:02:29;22.20;;;10.07;;
2646;SDS011;1333;50.958;6.770;2024-01-07T02:04:56;18.63;;;10.03;;
2646;SDS011;1333;50.958;6.770;2024-01-07T02:07:23;22.43;;;11.17;;
2646;SDS011;1333;50.958;6.770;2024-01-07T02:09:49;18.40;;;9.97;;
2646;SDS011;1333;50.958;6.770;2024-01-07T02:12:15;20.80;;;10.07;;
2646;SDS011;1333;50.958;6.770;2024-01-07T02:14:40;20.90;;;10.90;;
2646;SDS011;1333;50.958;6.770;2024-01-07T02:17:06;22.10;;;10.47;;
2646;SDS011;1333;50.958;6.770;2024-01-07T02:19:32;18.87;;;10.27;;
2646;SDS011;1333;50.958;6.770;2024-01-07T02:21:57;26.03;;;9.73;;
2646;SDS011;1333;50.958;6.770;2024-01-07T02:24:23;14.67;;;9.10;;
2646;SDS011;1333;50.958;6.770;2024-01-07T02:26:49;12.17;;;7.80;;
2646;SDS011;1333;50.958;6.770;2024-01-07T02:29:15;13.57;;;7.77;;
2646;SDS011;1333;50.958;6.770;2024-01-07T02:31:40;21.30;;;9.63;;
2646;SDS011;1333;50.958;6.770;2024-01-07T02:34:06;16.20;;;9.20;;
2646;SDS011;1333;50.958;6.770;2024-01-07T02:36:33;14.03;;;8.50;;
2646;SDS011;1333;50.958;6.770;2024-01-07T02:38:59;12.67;;;9.47;;
2646;SDS011;1333;50.958;6.770;2024-01-07T02:41:24;13.63;;;8.47;;
2646;SDS011;1333;50.958;6.770;2024-01-07T02:43:51;12.73;;;8.63;;
2646;SDS011;1333;50.958;6.770;2024-01-07T02:46:17;18.90;;;10.43;;
2646;SDS011;1333;50.958;6.770;2024-01-07T02:48:42;16.23;;;9.00;;
2646;SDS011;1333;50.958;6.770;2024-01-07T02:51:08;19.47;;;10.70;;
2646;SDS011;1333;50.958;6.770;2024-01-07T02:53:34;23.00;;;11.43;;
2646;SDS011;1333;50.958;6.770;2024-01-07T02:55:59;18.37;;;10.13;;
2646;SDS011;1333;50.958;6.770;2024-01-07T02:58:25;17.57;;;9.80;;
2646;SDS011;1333;50.958;6.770;2024-01-07T03:00:50;22.43;;;11.40;;
2646;SDS011;1333;50.958;6.770;2024-01-07T03:03:16;21.37;;;10.37;;
2646;SDS011;1333;50.958;6.770;2024-01-07T03:05:42;24.40;;;9.27;;
2646;SDS011;1333;50.958;6.770;2024-01-07T03:08:07;16.30;;;9.10;;
2646;SDS011;1333;50.958;6.770;2024-01-07T03:10:33;20.83;;;11.33;;
2646;SDS011;1333;50.958;6.770;2024-01-07T03:12:59;19.00;;;10.63;;
2646;SDS011;1333;50.958;6.770;2024-01-07T03:15:25;16.77;;;8.97;;
2646;SDS011;1333;50.958;6.770;2024-01-07T03:17:51;19.23;;;10.90;;
2646;SDS011;1333;50.958;6.770;2024-01-07T03:20:16;14.50;;;9.00;;
2646;SDS011;1333;50.958;6.770;2024-01-07T03:22:42;18.83;;;10.50;;
2646;SDS011;1333;50.958;6.770;2024-01-07T03:25:07;18.37;;;9.57;;
2646;SDS011;1333;50.958;6.770;2024-01-07T03:27:33;18.67;;;9.97;;
2646;SDS011;1333;50.958;6.770;2024-01-07T03:29:59;13.40;;;9.67;;
2646;SDS011;1333;50.958;6.770;2024-01-07T03:32:24;19.17;;;10.33;;
2646;SDS011;1333;50.958;6.770;2024-01-07T03:34:50;16.57;;;10.90;;
2646;SDS011;1333;50.958;6.770;2024-01-07T03:37:15;17.30;;;11.20;;
2646;SDS011;1333;50.958;6.770;2024-01-07T03:39:42;16.60;;;9.80;;
2646;SDS011;1333;50.958;6.770;2024-01-07T03:42:08;20.50;;;10.37;;
2646;SDS011;1333;50.958;6.770;2024-01-07T03:44:36;17.97;;;10.43;;
2646;SDS011;1333;50.958;6.770;2024-01-07T03:47:03;13.40;;;9.30;;
2646;SDS011;1333;50.958;6.770;2024-01-07T03:49:29;18.60;;;10.40;;
2646;SDS011;1333;50.958;6.770;2024-01-07T03:51:54;18.63;;;10.27;;
2646;SDS011;1333;50.958;6.770;2024-01-07T03:54:20;14.90;;;8.83;;
2646;SDS011;1333;50.958;6.770;2024-01-07T03:56:45;18.50;;;9.90;;
2646;SDS011;1333;50.958;6.770;2024-01-07T03:59:11;14.50;;;10.17;;
2646;SDS011;1333;50.958;6.770;2024-01-07T04:01:36;15.97;;;9.90;;
2646;SDS011;1333;50.958;6.770;2024-01-07T04:04:02;18.17;;;8.93;;
2646;SDS011;1333;50.958;6.770;2024-01-07T04:06:28;31.60;;;20.33;;
2646;SDS011;1333;50.958;6.770;2024-01-07T04:08:54;20.60;;;11.40;;
2646;SDS011;1333;50.958;6.770;2024-01-07T04:11:19;17.53;;;10.07;;
2646;SDS011;1333;50.958;6.770;2024-01-07T04:13:45;15.27;;;9.87;;
2646;SDS011;1333;50.958;6.770;2024-01-07T04:16:19;24.00;;;11.83;;
2646;SDS011;1333;50.958;6.770;2024-01-07T04:18:46;17.13;;;9.80;;
2646;SDS011;1333;50.958;6.770;2024-01-07T04:21:12;27.50;;;10.97;;
2646;SDS011;1333;50.958;6.770;2024-01-07T04:23:38;20.70;;;12.07;;
2646;SDS011;1333;50.958;6.770;2024-01-07T04:26:05;20.30;;;10.03;;
2646;SDS011;1333;50.958;6.770;2024-01-07T04:28:31;17.07;;;9.10;;
2646;SDS011;1333;50.958;6.770;2024-01-07T04:30:57;19.13;;;11.23;;
2646;SDS011;1333;50.958;6.770;2024-01-07T04:33:22;18.40;;;10.27;;
2646;SDS011;1333;50.958;6.770;2024-01-07T04:35:48;24.83;;;11.70;;
2646;SDS011;1333;50.958;6.770;2024-01-07T04:38:13;18.10;;;11.70;;
2646;SDS011;1333;50.958;6.770;2024-01-07T04:40:39;17.93;;;10.90;;
2646;SDS011;1333;50.958;6.770;2024-01-07T04:43:04;24.00;;;13.23;;
2646;SDS011;1333;50.958;6.770;2024-01-07T04:45:30;18.00;;;11.13;;
2646;SDS011;1333;50.958;6.770;2024-01-07T04:47:56;20.30;;;12.60;;
2646;SDS011;1333;50.958;6.770;2024-01-07T04:50:21;59.83;;;28.13;;
2646;SDS011;1333;50.958;6.770;2024-01-07T04:52:48;21.17;;;11.60;;
2646;SDS011;1333;50.958;6.770;2024-01-07T04:55:13;16.37;;;10.40;;
2646;SDS011;1333;50.958;6.770;2024-01-07T04:57:39;21.30;;;10.47;;
2646;SDS011;1333;50.958;6.770;2024-01-07T05:00:04;16.20;;;8.73;;
2646;SDS011;1333;50.958;6.770;2024-01-07T05:02:31;18.60;;;9.03;;
2646;SDS011;1333;50.958;6.770;2024-01-07T05:04:56;15.93;;;8.73;;
2646;SDS011;1333;50.958;6.770;2024-01-07T05:07:22;14.83;;;9.63;;
2646;SDS011;1333;50.958;6.770;2024-01-07T05:09:47;16.73;;;10.50;;
2646;SDS011;1333;50.958;6.770;2024-01-07T05:12:13;16.03;;;9.20;;
2646;SDS011;1333;50.958;6.770;2024-01-07T05:14:38;15.47;;;8.67;;
2646;SDS011;1333;50.958;6.770;2024-01-07T05:17:05;15.00;;;9.40;;
2646;SDS011;1333;50.958;6.770;2024-01-07T05:19:31;16.37;;;10.07;;
2646;SDS011;1333;50.958;6.770;2024-01-07T05:21:56;19.23;;;10.00;;
2646;SDS011;1333;50.958;6.770;2024-01-07T05:24:23;14.90;;;9.87;;
2646;SDS011;1333;50.958;6.770;2024-01-07T05:26:48;16.83;;;9.40;;
2646;SDS011;1333;50.958;6.770;2024-01-07T05:29:14;24.03;;;12.43;;
2646;SDS011;1333;50.958;6.770;2024-01-07T05:31:39;23.67;;;11.87;;
2646;SDS011;1333;50.958;6.770;2024-01-07T05:34:05;17.50;;;11.57;;
2646;SDS011;1333;50.958;6.770;2024-01-07T05:36:31;21.27;;;11.47;;
2646;SDS011;1333;50.958;6.770;2024-01-07T05:38:56;21.03;;;11.13;;
2646;SDS011;1333;50.958;6.770;2024-01-07T05:41:22;22.07;;;11.97;;
2646;SDS011;1333;50.958;6.770;2024-01-07T05:43:47;25.77;;;11.83;;
2646;SDS011;1333;50.958;6.770;2024-01-07T05:46:13;20.47;;;11.33;;
2646;SDS011;1333;50.958;6.770;2024-01-07T05:48:42;20.53;;;11.33;;
2646;SDS011;1333;50.958;6.770;2024-01-07T05:51:11;25.00;;;12.47;;
2646;SDS011;1333;50.958;6.770;2024-01-07T05:53:38;22.57;;;12.77;;
2646;SDS011;1333;50.958;6.770;2024-01-07T05:56:04;20.37;;;11.60;;
2646;SDS011;1333;50.958;6.770;2024-01-07T05:58:30;21.67;;;12.37;;
2646;SDS011;1333;50.958;6.770;2024-01-07T06:00:56;19.20;;;13.77;;
2646;SDS011;1333;50.958;6.770;2024-01-07T06:03:21;20.97;;;11.50;;
2646;SDS011;1333;50.958;6.770;2024-01-07T06:05:47;16.57;;;10.17;;
2646;SDS011;1333;50.958;6.770;2024-01-07T06:08:12;18.87;;;10.93;;
2646;SDS011;1333;50.958;6.770;2024-01-07T06:10:38;24.27;;;13.37;;
2646;SDS011;1333;50.958;6.770;2024-01-07T06:13:04;20.40;;;11.43;;
2646;SDS011;1333;50.958;6.770;2024-01-07T06:15:29;21.57;;;14.47;;
2646;SDS011;1333;50.958;6.770;2024-01-07T06:17:55;22.63;;;12.90;;
2646;SDS011;1333;50.958;6.770;2024-01-07T06:20:21;24.17;;;13.50;;
2646;SDS011;1333;50.958;6.770;2024-01-07T06:22:46;18.00;;;12.10;;
2646;SDS011;1333;50.958;6.770;2024-01-07T06:25:12;15.30;;;11.37;;
2646;SDS011;1333;50.958;6.770;2024-01-07T06:27:38;17.23;;;11.53;;
2646;SDS011;1333;50.958;6.770;2024-01-07T06:30:04;17.80;;;12.23;;
2646;SDS011;1333;50.958;6.770;2024-01-07T06:32:30;16.73;;;10.77;;
2646;SDS011;1333;50.958;6.770;2024-01-07T06:34:57;17.93;;;11.57;;
2646;SDS011;1333;50.958;6.770;2024-01-07T06:37:23;21.30;;;12.97;;
2646;SDS011;1333;50.958;6.770;2024-01-07T06:39:48;17.17;;;12.60;;
2646;SDS011;1333;50.958;6.770;2024-01-07T06:42:14;19.47;;;12.37;;
2646;SDS011;1333;50.958;6.770;2024-01-07T06:44:39;20.00;;;12.63;;
2646;SDS011;1333;50.958;6.770;2024-01-07T06:47:05;17.23;;;12.20;;
2646;SDS011;1333;50.958;6.770;2024-01-07T06:49:31;18.17;;;10.40;;
2646;SDS011;1333;50.958;6.770;2024-01-07T06:51:56;22.73;;;13.53;;
2646;SDS011;1333;50.958;6.770;2024-01-07T06:54:22;24.20;;;14.20;;
2646;SDS011;1333;50.958;6.770;2024-01-07T06:56:47;20.03;;;13.33;;
2646;SDS011;1333;50.958;6.770;2024-01-07T06:59:13;23.83;;;12.87;;
2646;SDS011;1333;50.958;6.770;2024-01-07T07:01:39;21.20;;;12.53;;
2646;SDS011;1333;50.958;6.770;2024-01-07T07:04:05;24.37;;;15.00;;
2646;SDS011;1333;50.958;6.770;2024-01-07T07:06:30;19.10;;;12.90;;
2646;SDS011;1333;50.958;6.770;2024-01-07T07:08:56;23.23;;;13.33;;
2646;SDS011;1333;50.958;6.770;2024-01-07T07:11:21;22.30;;;12.43;;
2646;SDS011;1333;50.958;6.770;2024-01-07T07:13:47;20.17;;;12.43;;
2646;SDS011;1333;50.958;6.770;2024-01-07T07:16:12;20.27;;;12.50;;
2646;SDS011;1333;50.958;6.770;2024-01-07T07:18:38;18.13;;;12.40;;
2646;SDS011;1333;50.958;6.770;2024-01-07T07:21:03;25.97;;;15.63;;
2646;SDS011;1333;50.958;6.770;2024-01-07T07:23:29;21.87;;;12.30;;
2646;SDS011;1333;50.958;6.770;2024-01-07T07:25:55;18.80;;;11.23;;
2646;SDS011;1333;50.958;6.770;2024-01-07T07:28:21;17.90;;;11.60;;
2646;SDS011;1333;50.958;6.770;2024-01-07T07:30:46;19.93;;;13.00;;
2646;SDS011;1333;50.958;6.770;2024-01-07T07:33:12;19.37;;;11.00;;
2646;SDS011;1333;50.958;6.770;2024-01-07T07:35:38;16.83;;;11.00;;
2646;SDS011;1333;50.958;6.770;2024-01-07T07:38:05;19.00;;;13.13;;
2646;SDS011;1333;50.958;6.770;2024-01-07T07:40:31;22.07;;;12.13;;
2646;SDS011;1333;50.958;6.770;2024-01-07T07:42:57;18.80;;;12.50;;
2646;SDS011;1333;50.958;6.770;2024-01-07T07:45:22;28.47;;;17.60;;
2646;SDS011;1333;50.958;6.770;2024-01-07T07:47:48;23.57;;;13.43;;
2646;SDS011;1333;50.958;6.770;2024-01-07T07:50:13;18.70;;;11.20;;
2646;SDS011;1333;50.958;6.770;2024-01-07T07:52:41;13.70;;;9.67;;
2646;SDS011;1333;50.958;6.770;2024-01-07T07:55:08;16.57;;;11.07;;
2646;SDS011;1333;50.958;6.770;2024-01-07T07:57:34;18.83;;;11.33;;
2646;SDS011;1333;50.958;6.770;2024-01-07T08:00:00;16.40;;;10.20;;
2646;SDS011;1333;50.958;6.770;2024-01-07T08:02:26;21.03;;;11.63;;
2646;SDS011;1333;50.958;6.770;2024-01-07T08:04:51;16.63;;;11.50;;
2646;SDS011;1333;50.958;6.770;2024-01-07T08:07:17;19.80;;;11.27;;
2646;SDS011;1333;50.958;6.770;2024-01-07T08:09:42;17.87;;;11.37;;
2646;SDS011;1333;50.958;6.770;2024-01-07T08:12:08;23.40;;;11.80;;
2646;SDS011;1333;50.958;6.770;2024-01-07T08:14:34;12.90;;;9.73;;
2646;SDS011;1333;50.958;6.770;2024-01-07T08:17:00;16.43;;;10.33;;
2646;SDS011;1333;50.958;6.770;2024-01-07T08:19:26;16.60;;;10.20;;
2646;SDS011;1333;50.958;6.770;2024-01-07T08:21:51;21.50;;;12.83;;
2646;SDS011;1333;50.958;6.770;2024-01-07T08:24:17;18.37;;;10.90;;
2646;SDS011;1333;50.958;6.770;2024-01-07T08:26:43;16.77;;;10.97;;
2646;SDS011;1333;50.958;6.770;2024-01-07T08:29:09;14.83;;;10.73;;
2646;SDS011;1333;50.958;6.770;2024-01-07T08:31:34;17.07;;;10.20;;
2646;SDS011;1333;50.958;6.770;2024-01-07T08:34:00;16.13;;;10.47;;
2646;SDS011;1333;50.958;6.770;2024-01-07T08:36:26;16.80;;;10.53;;
2646;SDS011;1333;50.958;6.770;2024-01-07T08:38:51;14.77;;;9.87;;
2646;SDS011;1333;50.958;6.770;2024-01-07T08:41:17;18.83;;;11.37;;
2646;SDS011;1333;50.958;6.770;2024-01-07T08:43:43;19.20;;;12.17;;
2646;SDS011;1333;50.958;6.770;2024-01-07T08:46:10;22.80;;;11.73;;
2646;SDS011;1333;50.958;6.770;2024-01-07T08:48:36;15.60;;;11.03;;
2646;SDS011;1333;50.958;6.770;2024-01-07T08:51:01;20.13;;;12.03;;
2646;SDS011;1333;50.958;6.770;2024-01-07T08:53:28;20.40;;;11.40;;
2646;SDS011;1333;50.958;6.770;2024-01-07T08:55:53;30.47;;;13.83;;
2646;SDS011;1333;50.958;6.770;2024-01-07T08:58:19;30.80;;;17.27;;
2646;SDS011;1333;50.958;6.770;2024-01-07T09:00:45;17.20;;;12.23;;
2646;SDS011;1333;50.958;6.770;2024-01-07T09:03:10;18.93;;;11.83;;
2646;SDS011;1333;50.958;6.770;2024-01-07T09:05:36;22.57;;;13.80;;
2646;SDS011;1333;50.958;6.770;2024-01-07T09:08:02;29.80;;;12.37;;
2646;SDS011;1333;50.958;6.770;2024-01-07T09:10:27;19.63;;;12.20;;
2646;SDS011;1333;50.958;6.770;2024-01-07T09:12:53;17.90;;;12.00;;
2646;SDS011;1333;50.958;6.770;2024-01-07T09:15:19;26.17;;;11.17;;
2646;SDS011;1333;50.958;6.770;2024-01-07T09:17:45;15.03;;;9.80;;
2646;SDS011;1333;50.958;6.770;2024-01-07T09:20:11;19.80;;;10.53;;
2646;SDS011;1333;50.958;6.770;2024-01-07T09:22:37;31.80;;;16.60;;
2646;SDS011;1333;50.958;6.770;2024-01-07T09:25:03;14.30;;;10.67;;
2646;SDS011;1333;50.958;6.770;2024-01-07T09:27:29;15.63;;;10.83;;
2646;SDS011;1333;50.958;6.770;2024-01-07T09:29:55;17.03;;;10.40;;
2646;SDS011;1333;50.958;6.770;2024-01-07T09:32:21;15.60;;;10.00;;
2646;SDS011;1333;50.958;6.770;2024-01-07T09:34:46;18.00;;;11.57;;
2646;SDS011;1333;50.958;6.770;2024-01-07T09:37:12;17.10;;;11.10;;
2646;SDS011;1333;50.958;6.770;2024-01-07T09:39:40;18.43;;;11.73;;
2646;SDS011;1333;50.958;6.770;2024-01-07T09:44:39;15.80;;;10.50;;
2646;SDS011;1333;50.958;6.770;2024-01-07T09:47:14;14.43;;;9.43;;
2646;SDS011;1333;50.958;6.770;2024-01-07T09:49:40;17.43;;;11.67;;
2646;SDS011;1333;50.958;6.770;2024-01-07T09:52:07;18.17;;;11.00;;
2646;SDS011;1333;50.958;6.770;2024-01-07T09:54:38;14.30;;;9.00;;
2646;SDS011;1333;50.958;6.770;2024-01-07T09:57:06;18.43;;;9.30;;
2646;SDS011;1333;50.958;6.770;2024-01-07T09:59:33;21.57;;;10.17;;
2646;SDS011;1333;50.958;6.770;2024-01-07T10:02:00;17.30;;;11.07;;
2646;SDS011;1333;50.958;6.770;2024-01-07T10:04:26;15.27;;;9.40;;
2646;SDS011;1333;50.958;6.770;2024-01-07T10:06:55;11.20;;;8.10;;
2646;SDS011;1333;50.958;6.770;2024-01-07T10:09:22;15.90;;;9.67;;
2646;SDS011;1333;50.958;6.770;2024-01-07T10:11:48;16.97;;;9.83;;
2646;SDS011;1333;50.958;6.770;2024-01-07T10:14:14;15.07;;;8.73;;
2646;SDS011;1333;50.958;6.770;2024-01-07T10:16:40;12.63;;;8.40;;
2646;SDS011;1333;50.958;6.770;2024-01-07T10:19:06;13.40;;;8.93;;
2646;SDS011;1333;50.958;6.770;2024-01-07T10:21:32;13.77;;;8.20;;
2646;SDS011;1333;50.958;6.770;2024-01-07T10:24:08;9.60;;;8.13;;
2646;SDS011;1333;50.958;6.770;2024-01-07T10:26:35;10.50;;;6.67;;
2646;SDS011;1333;50.958;6.770;2024-01-07T10:29:02;10.60;;;6.60;;
2646;SDS011;1333;50.958;6.770;2024-01-07T10:31:27;11.10;;;8.00;;
2646;SDS011;1333;50.958;6.770;2024-01-07T10:33:54;10.43;;;7.50;;
2646;SDS011;1333;50.958;6.770;2024-01-07T10:36:21;8.83;;;5.90;;
2646;SDS011;1333;50.958;6.770;2024-01-07T10:38:47;10.97;;;5.87;;
2646;SDS011;1333;50.958;6.770;2024-01-07T10:41:13;9.43;;;6.83;;
2646;SDS011;1333;50.958;6.770;2024-01-07T10:43:41;7.00;;;6.17;;
2646;SDS011;1333;50.958;6.770;2024-01-07T10:46:11;11.50;;;7.90;;
2646;SDS011;1333;50.958;6.770;2024-01-07T10:48:38;9.53;;;8.07;;
2646;SDS011;1333;50.958;6.770;2024-01-07T10:51:12;11.23;;;7.73;;
2646;SDS011;1333;50.958;6.770;2024-01-07T10:53:39;12.00;;;7.43;;
2646;SDS011;1333;50.958;6.770;2024-01-07T10:56:09;11.50;;;7.10;;
2646;SDS011;1333;50.958;6.770;2024-01-07T10:58:37;11.40;;;7.53;;
2646;SDS011;1333;50.958;6.770;2024-01-07T11:01:05;12.00;;;6.80;;
2646;SDS011;1333;50.958;6.770;2024-01-07T11:06:46;15.00;;;8.37;;
2646;SDS011;1333;50.958;6.770;2024-01-07T11:09:14;13.03;;;9.60;;
2646;SDS011;1333;50.958;6.770;2024-01-07T11:11:45;10.97;;;7.30;;
2646;SDS011;1333;50.958;6.770;2024-01-07T11:17:07;14.43;;;8.80;;
2646;SDS011;1333;50.958;6.770;2024-01-07T11:19:33;13.03;;;9.70;;
2646;SDS011;1333;50.958;6.770;2024-01-07T11:24:54;16.90;;;9.50;;
2646;SDS011;1333;50.958;6.770;2024-01-07T11:27:21;13.40;;;8.37;;
2646;SDS011;1333;50.958;6.770;2024-01-07T11:30:04;11.30;;;8.03;;
2646;SDS011;1333;50.958;6.770;2024-01-07T11:32:33;13.77;;;9.17;;
2646;SDS011;1333;50.958;6.770;2024-01-07T11:34:59;14.90;;;11.10;;
2646;SDS011;1333;50.958;6.770;2024-01-07T11:37:26;11.00;;;9.10;;
2646;SDS011;1333;50.958;6.770;2024-01-07T11:39:53;13.37;;;8.40;;
2646;SDS011;1333;50.958;6.770;2024-01-07T11:42:21;14.83;;;9.40;;
2646;SDS011;1333;50.958;6.770;2024-01-07T11:47:14;9.20;;;8.03;;
2646;SDS011;1333;50.958;6.770;2024-01-07T11:49:40;9.33;;;8.33;;
2646;SDS011;1333;50.958;6.770;2024-01-07T11:52:06;8.83;;;6.90;;
2646;SDS011;1333;50.958;6.770;2024-01-07T11:54:33;9.50;;;7.37;;
2646;SDS011;1333;50.958;6.770;2024-01-07T11:56:58;25.07;;;16.97;;
2646;SDS011;1333;50.958;6.770;2024-01-07T11:59:24;8.50;;;7.57;;
2646;SDS011;1333;50.958;6.770;2024-01-07T12:01:49;15.97;;;8.90;;
2646;SDS011;1333;50.958;6.770;2024-01-07T12:04:15;9.50;;;6.50;;
2646;SDS011;1333;50.958;6.770;2024-01-07T12:06:41;12.37;;;8.10;;
2646;SDS011;1333;50.958;6.770;2024-01-07T12:09:06;11.90;;;7.77;;
2646;SDS011;1333;50.958;6.770;2024-01-07T12:11:32;8.77;;;6.67;;
2646;SDS011;1333;50.958;6.770;2024-01-07T12:13:58;11.70;;;8.10;;
2646;SDS011;1333;50.958;6.770;2024-01-07T12:16:25;23.00;;;13.80;;
2646;SDS011;1333;50.958;6.770;2024-01-07T12:18:50;9.43;;;7.37;;
2646;SDS011;1333;50.958;6.770;2024-01-07T12:21:19;10.07;;;8.20;;
2646;SDS011;1333;50.958;6.770;2024-01-07T12:23:48;7.13;;;5.53;;
2646;SDS011;1333;50.958;6.770;2024-01-07T12:26:18;12.40;;;7.00;;
2646;SDS011;1333;50.958;6.770;2024-01-07T12:28:52;13.47;;;6.67;;
2646;SDS011;1333;50.958;6.770;2024-01-07T12:31:19;8.60;;;5.93;;
2646;SDS011;1333;50.958;6.770;2024-01-07T12:33:45;9.80;;;6.73;;
2646;SDS011;1333;50.958;6.770;2024-01-07T12:36:12;12.53;;;7.07;;
2646;SDS011;1333;50.958;6.770;2024-01-07T12:38:37;9.63;;;5.83;;
2646;SDS011;1333;50.958;6.770;2024-01-07T12:41:03;8.73;;;6.77;;
2646;SDS011;1333;50.958;6.770;2024-01-07T12:43:29;9.90;;;6.93;;
2646;SDS011;1333;50.958;6.770;2024-01-07T12:45:55;5.67;;;5.10;;
2646;SDS011;1333;50.958;6.770;2024-01-07T12:48:21;7.67;;;6.00;;
2646;SDS011;1333;50.958;6.770;2024-01-07T12:50:47;12.63;;;6.97;;
2646;SDS011;1333;50.958;6.770;2024-01-07T12:53:13;11.80;;;6.53;;
2646;SDS011;1333;50.958;6.770;2024-01-07T12:55:39;7.70;;;5.67;;
2646;SDS011;1333;50.958;6.770;2024-01-07T12:58:05;7.37;;;5.63;;
2646;SDS011;1333;50.958;6.770;2024-01-07T13:00:30;7.67;;;5.87;;
2646;SDS011;1333;50.958;6.770;2024-01-07T13:02:56;9.93;;;6.13;;
2646;SDS011;1333;50.958;6.770;2024-01-07T13:05:22;6.57;;;4.93;;
2646;SDS011;1333;50.958;6.770;2024-01-07T13:07:48;9.90;;;5.63;;
2646;SDS011;1333;50.958;6.770;2024-01-07T13:10:15;34.73;;;18.40;;
2646;SDS011;1333;50.958;6.770;2024-01-07T13:12:40;6.27;;;4.93;;
2646;SDS011;1333;50.958;6.770;2024-01-07T13:15:07;9.90;;;5.37;;
2646;SDS011;1333;50.958;6.770;2024-01-07T13:17:32;8.70;;;5.37;;
2646;SDS011;1333;50.958;6.770;2024-01-07T13:19:58;6.23;;;4.43;;
2646;SDS011;1333;50.958;6.770;2024-01-07T13:22:25;6.40;;;4.13;;
2646;SDS011;1333;50.958;6.770;2024-01-07T13:24:50;5.87;;;4.40;;
2646;SDS011;1333;50.958;6.770;2024-01-07T13:27:16;13.30;;;6.20;;
2646;SDS011;1333;50.958;6.770;2024-01-07T13:29:44;6.13;;;4.30;;
2646;SDS011;1333;50.958;6.770;2024-01-07T13:32:12;6.00;;;3.93;;
2646;SDS011;1333;50.958;6.770;2024-01-07T13:34:42;5.30;;;3.97;;
2646;SDS011;1333;50.958;6.770;2024-01-07T13:37:08;7.83;;;5.97;;
2646;SDS011;1333;50.958;6.770;2024-01-07T13:39:33;4.87;;;4.40;;
2646;SDS011;1333;50.958;6.770;2024-01-07T13:41:58;7.80;;;5.30;;
2646;SDS011;1333;50.958;6.770;2024-01-07T13:44:24;8.70;;;4.80;;
2646;SDS011;1333;50.958;6.770;2024-01-07T13:46:49;4.97;;;4.47;;
2646;SDS011;1333;50.958;6.770;2024-01-07T13:49:17;7.80;;;4.57;;
2646;SDS011;1333;50.958;6.770;2024-01-07T13:51:43;5.00;;;4.23;;
2646;SDS011;1333;50.958;6.770;2024-01-07T13:54:09;7.07;;;4.60;;
2646;SDS011;1333;50.958;6.770;2024-01-07T13:56:38;4.97;;;3.90;;
2646;SDS011;1333;50.958;6.770;2024-01-07T13:59:06;6.10;;;4.77;;
2646;SDS011;1333;50.958;6.770;2024-01-07T14:01:33;6.30;;;5.00;;
2646;SDS011;1333;50.958;6.770;2024-01-07T14:03:58;6.77;;;5.53;;
2646;SDS011;1333;50.958;6.770;2024-01-07T14:06:24;5.10;;;3.93;;
2646;SDS011;1333;50.958;6.770;2024-01-07T14:08:49;7.70;;;4.77;;
2646;SDS011;1333;50.958;6.770;2024-01-07T14:11:15;5.30;;;4.33;;
2646;SDS011;1333;50.958;6.770;2024-01-07T14:13:40;5.03;;;4.07;;
2646;SDS011;1333;50.958;6.770;2024-01-07T14:16:09;7.07;;;4.90;;
2646;SDS011;1333;50.958;6.770;2024-01-07T14:18:35;6.90;;;4.90;;
2646;SDS011;1333;50.958;6.770;2024-01-07T14:21:00;6.97;;;5.00;;
2646;SDS011;1333;50.958;6.770;2024-01-07T14:23:26;4.97;;;4.57;;
2646;SDS011;1333;50.958;6.770;2024-01-07T14:25:52;6.00;;;5.17;;
2646;SDS011;1333;50.958;6.770;2024-01-07T14:28:17;7.40;;;5.10;;
2646;SDS011;1333;50.958;6.770;2024-01-07T14:30:43;6.20;;;3.90;;
2646;SDS011;1333;50.958;6.770;2024-01-07T14:33:09;7.00;;;4.70;;
2646;SDS011;1333;50.958;6.770;2024-01-07T14:35:35;5.50;;;4.50;;
2646;SDS011;1333;50.958;6.770;2024-01-07T14:38:00;4.20;;;3.80;;
2646;SDS011;1333;50.958;6.770;2024-01-07T14:40:26;6.47;;;3.70;;
2646;SDS011;1333;50.958;6.770;2024-01-07T14:42:51;5.73;;;4.63;;
2646;SDS011;1333;50.958;6.770;2024-01-07T14:45:23;6.40;;;3.40;;
2646;SDS011;1333;50.958;6.770;2024-01-07T14:47:52;6.00;;;3.97;;
2646;SDS011;1333;50.958;6.770;2024-01-07T14:50:18;4.40;;;3.70;;
2646;SDS011;1333;50.958;6.770;2024-01-07T14:52:44;4.13;;;3.77;;
2646;SDS011;1333;50.958;6.770;2024-01-07T14:55:10;3.87;;;3.43;;
2646;SDS011;1333;50.958;6.770;2024-01-07T14:57:36;3.50;;;3.17;;
2646;SDS011;1333;50.958;6.770;2024-01-07T15:00:01;7.17;;;5.13;;
2646;SDS011;1333;50.958;6.770;2024-01-07T15:02:28;3.93;;;3.00;;